Terminal Aerodrome Forecast
Issued by NWS

Home | Current Version | Previous Version | Text Only | Print | Product List | Glossary On
Versions: 1 2 3 4 5 6 7 8 9 10 11 12 13
000
FTUS44 KSJT 191808 RRA
TAFSOA
TAF
KSOA 191808Z 1918/2018 19011G19KT P6SM SCT035 SCT250
     FM200100 17010KT P6SM SCT070 BKN250
     FM201500 19011G18KT P6SM FEW250=

USA.gov is the U.S. government's official web portal to all federal, state and local government web resources and services.